Pimmit, Virginia
Current Conditions -  °F | °C
As of 12:52 AM on Thursday 18 Dec 2014 (Local Time) from KDCA Reporting Station
Few Clouds Few Clouds  
Wind Chill: 32°   Ceiling: Unl
Heat Index: 40°   Visibility: 10mi
Dew Point: 20°   Wind: 14mph
Humidity: 45%   Direction: 310°NW
Pressure: 30.08"   Gusts: 24mph
Location:  38.9012°N, 77.1971°W
Report Text: KDCA 180552Z 31012G21KT 10SM FEW080 04/M07 A3008 RMK AO2 SLP186 T00441067 10078 20044 51012
Loading
Personal Weather Stations






























Interactive Weather Map New forecast layout! Learn more

10-Day Weather Forecast

Advertisements
Track Severe Weather on mobile